Time;durP1;ratioP1;P1;durP2;ratioP2;P2;SDS_P1;SDS_P2;PMS_P1;PMS_P2;Temp;Humidity;BMP_temperature;BMP_pressure;BME280_temperature;BME280_humidity;BME280_pressure;Samples;Min_cycle;Max_cycle;Signal;HPM_P1;HPM_P2
2021/03/21 00:02:12;;;;;;;21.43;16.00;;;6.30;99.90;;;;;;5032713;28;20179;-65
2021/03/21 00:04:38;;;;;;;20.20;14.50;;;6.30;99.90;;;;;;5033207;28;20255;-65
2021/03/21 00:07:04;;;;;;;19.13;15.37;;;6.40;99.90;;;;;;5032855;28;20548;-65
2021/03/21 00:09:29;;;;;;;19.60;14.67;;;6.40;99.90;;;;;;5033048;28;20186;-64
2021/03/21 00:11:55;;;;;;;22.57;15.63;;;6.40;99.90;;;;;;5032521;28;20191;-65
2021/03/21 00:14:20;;;;;;;22.97;16.47;;;6.40;99.90;;;;;;5032720;28;20191;-65
2021/03/21 00:16:46;;;;;;;25.37;17.50;;;6.30;99.90;;;;;;5032642;28;20226;-66
2021/03/21 00:19:12;;;;;;;23.63;17.23;;;6.30;99.90;;;;;;5032752;28;20253;-65
2021/03/21 00:21:37;;;;;;;26.30;18.07;;;6.30;99.90;;;;;;5032151;28;20176;-65
2021/03/21 00:24:04;;;;;;;24.20;18.03;;;6.30;99.90;;;;;;5032712;28;20241;-66
2021/03/21 00:26:30;;;;;;;27.47;19.60;;;6.30;99.90;;;;;;5032310;28;20174;-65
2021/03/21 00:28:56;;;;;;;24.97;19.03;;;6.30;99.90;;;;;;5032760;28;20708;-65
2021/03/21 00:31:22;;;;;;;25.03;18.03;;;6.20;99.90;;;;;;5031939;28;20198;-65
2021/03/21 00:33:48;;;;;;;20.10;14.40;;;6.20;99.90;;;;;;5032340;28;20625;-65
2021/03/21 00:36:15;;;;;;;19.00;13.27;;;6.20;99.90;;;;;;5032400;28;20183;-66
2021/03/21 00:38:49;;;;;;;21.73;15.00;;;6.20;99.90;;;;;;5030880;28;20298;-65
2021/03/21 00:41:16;;;;;;;19.00;13.60;;;6.10;99.90;;;;;;5032146;28;20547;-66
2021/03/21 00:43:42;;;;;;;23.27;16.00;;;6.10;99.90;;;;;;5031613;28;20290;-65
2021/03/21 00:46:09;;;;;;;20.50;14.20;;;6.00;99.90;;;;;;5032177;28;20214;-66
2021/03/21 00:48:38;;;;;;;23.47;16.40;;;6.00;99.90;;;;;;5031921;28;20179;-65
2021/03/21 00:51:04;;;;;;;24.73;16.17;;;6.00;99.90;;;;;;5031925;28;20665;-66
2021/03/21 00:53:30;;;;;;;21.37;15.87;;;6.00;99.90;;;;;;5031698;28;20234;-66
2021/03/21 00:55:56;;;;;;;22.03;15.47;;;5.90;99.90;;;;;;5032159;28;20268;-65
2021/03/21 00:58:22;;;;;;;22.77;15.87;;;5.90;99.90;;;;;;5031794;28;20808;-65
2021/03/21 01:00:53;;;;;;;25.63;17.77;;;5.80;99.90;;;;;;5031867;28;20206;-65
2021/03/21 01:03:19;;;;;;;23.27;16.40;;;5.80;99.90;;;;;;5031717;28;20286;-65
2021/03/21 01:05:48;;;;;;;20.93;13.73;;;5.70;99.90;;;;;;5031973;28;20242;-63
2021/03/21 01:08:27;;;;;;;27.40;16.93;;;5.70;99.90;;;;;;5031643;28;20176;-63
2021/03/21 01:11:03;;;;;;;28.83;16.90;;;5.60;99.90;;;;;;5031606;28;20652;-63
2021/03/21 01:13:29;;;;;;;26.77;17.27;;;5.50;99.90;;;;;;5031650;28;20673;-64
2021/03/21 01:15:55;;;;;;;23.87;16.93;;;5.50;99.90;;;;;;5031853;28;20238;-64
2021/03/21 01:18:27;;;;;;;23.70;15.73;;;5.50;99.90;;;;;;5031383;28;20599;-64
2021/03/21 01:20:53;;;;;;;22.27;15.50;;;5.50;99.90;;;;;;5031490;28;20190;-63
2021/03/21 01:23:19;;;;;;;24.47;15.47;;;5.50;99.90;;;;;;5031411;28;20187;-63
2021/03/21 01:25:45;;;;;;;24.33;16.97;;;5.50;99.90;;;;;;5032068;28;20172;-65
2021/03/21 01:28:37;;;;;;;24.53;17.53;;;5.50;99.90;;;;;;5031670;28;20263;-64
2021/03/21 01:31:05;;;;;;;23.37;16.07;;;5.50;99.90;;;;;;5011916;28;20695;-63
2021/03/21 01:33:33;;;;;;;23.43;14.80;;;5.50;99.90;;;;;;5012130;28;20242;-64
2021/03/21 01:35:59;;;;;;;17.67;11.13;;;5.50;99.90;;;;;;5011952;28;20172;-63
2021/03/21 01:38:25;;;;;;;24.30;14.47;;;5.40;99.90;;;;;;5012103;28;20570;-64
2021/03/21 01:41:03;;;;;;;23.63;16.13;;;5.40;99.90;;;;;;5030377;28;20237;-63
2021/03/21 01:43:33;;;;;;;23.67;15.40;;;5.40;99.90;;;;;;5031607;28;20221;-63
2021/03/21 01:45:58;;;;;;;27.90;18.80;;;5.40;99.90;;;;;;5031403;28;20171;-63
2021/03/21 01:48:35;;;;;;;25.13;16.27;;;5.40;99.90;;;;;;5031574;28;20226;-64
2021/03/21 01:51:07;;;;;;;26.30;17.43;;;5.30;99.90;;;;;;5030791;28;20652;-63
2021/03/21 01:53:35;;;;;;;27.47;18.00;;;5.30;99.90;;;;;;5031364;28;20238;-64
2021/03/21 01:56:01;;;;;;;27.17;17.43;;;5.30;99.90;;;;;;5032485;28;20181;-64
2021/03/21 01:58:29;;;;;;;24.07;15.83;;;5.20;99.90;;;;;;5035450;28;20211;-63
2021/03/21 02:01:22;;;;;;;22.97;14.13;;;5.30;99.90;;;;;;5034998;28;20541;-62
2021/03/21 02:03:48;;;;;;;26.03;16.27;;;5.20;99.90;;;;;;5035563;28;20191;-64
2021/03/21 02:06:55;;;;;;;26.43;18.03;;;5.10;99.90;;;;;;5035219;28;20455;-63
2021/03/21 02:09:31;;;;;;;28.47;17.17;;;5.10;99.90;;;;;;5006264;28;20202;-64
2021/03/21 02:12:00;;;;;;;26.70;16.97;;;5.20;99.90;;;;;;5035860;28;20175;-63
2021/03/21 02:15:01;;;;;;;29.20;18.70;;;5.20;99.90;;;;;;5035170;28;20203;-63
2021/03/21 02:17:39;;;;;;;26.63;17.07;;;5.20;99.90;;;;;;5012648;28;20282;-65
2021/03/21 02:20:04;;;;;;;29.17;18.70;;;5.30;99.90;;;;;;5035942;28;20171;-64
2021/03/21 02:22:41;;;;;;;28.17;18.53;;;5.30;99.90;;;;;;5035882;28;20218;-66
2021/03/21 02:25:12;;;;;;;31.27;18.93;;;5.40;99.90;;;;;;5035332;28;20167;-64
2021/03/21 02:27:57;;;;;;;31.87;18.80;;;5.40;99.90;;;;;;5034976;28;20718;-65
2021/03/21 02:30:34;;;;;;;27.00;17.97;;;5.40;99.90;;;;;;5034469;28;20455;-65
2021/03/21 02:33:17;;;;;;;27.67;18.90;;;5.40;99.90;;;;;;5034924;28;20237;-67
2021/03/21 02:36:15;;;;;;;23.50;16.53;;;5.40;99.90;;;;;;5034790;28;20190;-65
2021/03/21 02:38:45;;;;;;;28.60;18.57;;;5.30;99.90;;;;;;5033884;28;20708;-65
2021/03/21 02:41:30;;;;;;;24.57;16.73;;;5.30;99.90;;;;;;5034553;28;20580;-64
2021/03/21 02:44:01;;;;;;;24.53;15.77;;;5.30;99.90;;;;;;5034346;28;20195;-64
2021/03/21 02:46:35;;;;;;;22.77;14.17;;;5.30;99.90;;;;;;5034469;28;20172;-65
2021/03/21 02:49:11;;;;;;;26.13;16.00;;;5.30;99.90;;;;;;5034348;28;20183;-63
2021/03/21 02:51:41;;;;;;;24.13;16.07;;;5.30;99.90;;;;;;5034411;28;20591;-65
2021/03/21 02:56:42;;;;;;;19.40;13.43;;;5.40;99.90;;;;;;5017502;28;20231;-68
2021/03/21 02:59:13;;;;;;;22.93;15.83;;;5.30;99.90;;;;;;5018825;28;20203;-66
2021/03/21 03:01:45;;;;;;;20.03;14.50;;;5.40;99.90;;;;;;5018084;28;20649;-68
2021/03/21 03:04:17;;;;;;;25.17;15.60;;;5.40;99.90;;;;;;5018238;28;20188;-70
2021/03/21 03:06:52;;;;;;;20.13;13.17;;;5.40;99.90;;;;;;5017782;28;20175;-70
2021/03/21 03:09:36;;;;;;;23.70;15.60;;;5.40;99.90;;;;;;5018485;28;20163;-67
2021/03/21 03:12:33;;;;;;;22.77;14.07;;;5.30;99.90;;;;;;5016890;28;20180;-67
2021/03/21 03:15:05;;;;;;;24.53;14.13;;;5.30;99.90;;;;;;5018583;28;20175;-68
2021/03/21 03:17:37;;;;;;;23.30;15.93;;;5.30;99.90;;;;;;5017743;28;20184;-67
2021/03/21 03:20:32;;;;;;;25.27;15.60;;;5.30;99.90;;;;;;5018706;28;20172;-67
2021/03/21 03:23:19;;;;;;;21.33;12.87;;;5.30;99.90;;;;;;5018142;28;20283;-67
2021/03/21 03:25:52;;;;;;;28.20;16.90;;;5.30;99.90;;;;;;5017954;28;20183;-68
2021/03/21 03:28:27;;;;;;;27.33;16.37;;;5.30;99.90;;;;;;5018717;28;20176;-68
2021/03/21 03:31:26;;;;;;;27.67;17.63;;;5.30;99.90;;;;;;5018464;28;20274;-69
2021/03/21 03:33:54;;;;;;;29.77;18.37;;;5.30;99.90;;;;;;5019174;28;20200;-69
2021/03/21 03:36:19;;;;;;;27.30;18.20;;;5.40;99.90;;;;;;5018407;28;20567;-67
2021/03/21 03:38:47;;;;;;;23.53;15.43;;;5.40;99.90;;;;;;5018247;28;20211;-68
2021/03/21 03:41:37;;;;;;;28.60;17.87;;;5.40;99.90;;;;;;5018228;28;20168;-67
2021/03/21 03:44:22;;;;;;;27.73;17.33;;;5.40;99.90;;;;;;5017917;28;20271;-66
2021/03/21 03:46:50;;;;;;;25.63;16.33;;;5.40;99.90;;;;;;5018757;28;20176;-69
2021/03/21 03:49:31;;;;;;;27.87;16.37;;;5.50;99.90;;;;;;5018577;28;20176;-70
2021/03/21 03:52:07;;;;;;;27.57;17.30;;;5.40;99.90;;;;;;5016554;28;20559;-70
2021/03/21 03:54:48;;;;;;;24.43;16.07;;;5.50;99.90;;;;;;5018288;28;20271;-65
2021/03/21 03:57:46;;;;;;;24.97;16.07;;;5.50;99.90;;;;;;5017636;28;20214;-69
2021/03/21 04:00:26;;;;;;;24.50;13.00;;;5.60;99.90;;;;;;5018117;28;20183;-69
2021/03/21 04:03:04;;;;;;;25.17;15.00;;;5.50;99.90;;;;;;5018337;28;20676;-69
2021/03/21 04:05:39;;;;;;;25.27;16.27;;;5.40;99.90;;;;;;5017792;28;20176;-67
2021/03/21 04:08:28;;;;;;;24.83;15.00;;;5.40;99.90;;;;;;5017663;28;20677;-68
2021/03/21 04:11:03;;;;;;;20.83;14.20;;;5.40;99.90;;;;;;5017917;28;20164;-67
2021/03/21 04:13:58;;;;;;;25.73;16.03;;;5.40;99.90;;;;;;5017479;28;20286;-68
2021/03/21 04:16:32;;;;;;;24.47;13.90;;;5.30;99.90;;;;;;5017546;28;20160;-68
2021/03/21 04:19:10;;;;;;;22.10;12.93;;;5.30;99.90;;;;;;5017008;28;20211;-67
2021/03/21 04:21:40;;;;;;;24.47;15.33;;;5.30;99.90;;;;;;5017706;28;20559;-68
2021/03/21 04:24:13;;;;;;;24.93;15.50;;;5.20;99.90;;;;;;5017596;28;20801;-68
2021/03/21 04:26:51;;;;;;;26.43;16.07;;;5.20;99.90;;;;;;5018114;28;20182;-70
2021/03/21 04:29:26;;;;;;;20.57;12.37;;;5.20;99.90;;;;;;5017827;28;20172;-68
2021/03/21 04:31:57;;;;;;;27.40;14.97;;;5.20;99.90;;;;;;5016535;28;20176;-63
2021/03/21 04:34:25;;;;;;;19.27;11.90;;;5.30;99.90;;;;;;5012547;28;20207;-63
2021/03/21 04:36:53;;;;;;;20.40;13.20;;;5.30;99.90;;;;;;5012530;28;20237;-63
2021/03/21 04:39:25;;;;;;;20.67;12.70;;;5.20;99.90;;;;;;5012534;28;20208;-63
2021/03/21 04:42:12;;;;;;;23.47;14.97;;;5.20;99.90;;;;;;5012245;28;20242;-63
2021/03/21 04:44:40;;;;;;;19.10;11.20;;;5.20;99.90;;;;;;5012539;28;20239;-63
2021/03/21 04:47:17;;;;;;;26.53;14.20;;;5.30;99.90;;;;;;5012336;28;20168;-64
2021/03/21 04:49:43;;;;;;;16.30;10.17;;;5.30;99.90;;;;;;5012359;28;20176;-64
2021/03/21 04:52:25;;;;;;;24.13;12.13;;;5.30;99.90;;;;;;5012272;28;20644;-65
2021/03/21 04:54:53;;;;;;;27.27;14.60;;;5.30;99.90;;;;;;5012311;28;20227;-64
2021/03/21 04:57:25;;;;;;;19.00;12.90;;;5.30;99.90;;;;;;5012194;28;20267;-64
2021/03/21 04:59:51;;;;;;;22.10;12.67;;;5.30;99.90;;;;;;5012231;28;20546;-64
2021/03/21 05:02:28;;;;;;;25.60;14.27;;;5.30;99.90;;;;;;5011958;28;20637;-64
2021/03/21 05:05:01;;;;;;;21.50;12.97;;;5.30;99.90;;;;;;5011071;28;20196;-64
2021/03/21 05:07:32;;;;;;;26.23;13.67;;;5.30;99.90;;;;;;5011968;28;20238;-64
2021/03/21 05:10:26;;;;;;;25.80;15.03;;;5.30;99.90;;;;;;5012068;28;20731;-64
2021/03/21 05:13:00;;;;;;;27.87;15.07;;;5.30;99.90;;;;;;5012173;28;20639;-64
2021/03/21 05:15:31;;;;;;;22.43;11.63;;;5.30;99.90;;;;;;5012022;28;20172;-64
2021/03/21 05:18:11;;;;;;;16.47;8.90;;;5.30;99.90;;;;;;5011800;28;20199;-65
2021/03/21 05:20:47;;;;;;;28.37;14.10;;;5.20;99.90;;;;;;5011828;28;20254;-65
2021/03/21 05:23:43;;;;;;;25.10;12.80;;;5.20;99.90;;;;;;5012008;28;20195;-64
2021/03/21 05:26:21;;;;;;;26.70;14.87;;;5.20;99.90;;;;;;5011783;28;20168;-65
2021/03/21 05:29:14;;;;;;;28.00;14.33;;;5.30;99.90;;;;;;5011839;28;20184;-65
2021/03/21 05:31:40;;;;;;;32.33;17.53;;;5.30;99.90;;;;;;5011324;28;20180;-65
2021/03/21 05:34:05;;;;;;;28.33;14.20;;;5.30;99.90;;;;;;5011843;28;20195;-65
2021/03/21 05:36:50;;;;;;;33.53;17.47;;;5.30;99.90;;;;;;5011541;28;20396;-65
2021/03/21 05:39:31;;;;;;;35.33;17.43;;;5.30;99.90;;;;;;5011867;28;20242;-64
2021/03/21 05:42:27;;;;;;;33.10;17.13;;;5.30;99.90;;;;;;5011230;28;20540;-64
2021/03/21 05:45:42;;;;;;;34.83;17.67;;;5.30;99.90;;;;;;5011662;28;20223;-64
2021/03/21 05:48:22;;;;;;;40.47;18.80;;;5.30;99.90;;;;;;4950840;29;20197;-64
2021/03/21 05:51:08;;;;;;;42.87;19.13;;;5.30;99.90;;;;;;4950905;29;20185;-65
2021/03/21 05:53:50;;;;;;;44.17;17.57;;;5.30;99.90;;;;;;4979362;28;20247;-65
2021/03/21 05:56:22;;;;;;;47.10;20.93;;;5.30;99.90;;;;;;4992212;28;20267;-64
2021/03/21 05:59:18;;;;;;;44.70;18.50;;;5.30;99.90;;;;;;5010815;28;20231;-64
2021/03/21 06:02:06;;;;;;;51.23;24.03;;;5.40;99.90;;;;;;5011108;28;20219;-65
2021/03/21 06:04:37;;;;;;;49.63;23.00;;;5.40;99.90;;;;;;5011382;28;20191;-64
2021/03/21 06:07:15;;;;;;;44.27;21.70;;;5.40;99.90;;;;;;5011488;28;20179;-65
2021/03/21 06:10:20;;;;;;;55.03;24.33;;;5.40;99.90;;;;;;5011562;28;20172;-65
2021/03/21 06:13:20;;;;;;;43.07;20.30;;;5.40;99.90;;;;;;5011202;28;20586;-65
2021/03/21 06:16:13;;;;;;;52.60;23.47;;;5.40;99.90;;;;;;5011194;28;20184;-65
2021/03/21 06:18:50;;;;;;;50.60;22.90;;;5.50;99.90;;;;;;5011108;28;20748;-65
2021/03/21 06:21:24;;;;;;;55.77;24.80;;;5.50;99.90;;;;;;5011199;28;20176;-65
2021/03/21 06:24:08;;;;;;;42.63;19.83;;;5.50;99.90;;;;;;5011112;28;20541;-65
2021/03/21 06:26:44;;;;;;;52.07;24.50;;;5.50;99.90;;;;;;5011273;28;20174;-65
2021/03/21 06:29:47;;;;;;;48.27;21.67;;;5.50;99.90;;;;;;5010705;28;20238;-65
2021/03/21 06:32:20;;;;;;;47.87;23.23;;;5.50;99.90;;;;;;5010868;28;20254;-65
2021/03/21 06:34:59;;;;;;;51.67;23.40;;;5.60;99.90;;;;;;5011462;28;20192;-65
2021/03/21 06:38:10;;;;;;;47.33;21.57;;;5.60;99.90;;;;;;5011003;28;20180;-65
2021/03/21 06:40:54;;;;;;;49.50;22.80;;;5.60;99.90;;;;;;4977276;28;20238;-65
2021/03/21 06:43:25;;;;;;;42.13;19.77;;;5.60;99.90;;;;;;5014516;28;20271;-65
2021/03/21 06:46:00;;;;;;;47.23;21.87;;;5.70;99.90;;;;;;5014587;28;20180;-65
2021/03/21 06:48:53;;;;;;;39.20;18.90;;;5.70;99.90;;;;;;4994958;28;20251;-65
2021/03/21 06:51:31;;;;;;;58.13;24.57;;;5.70;99.90;;;;;;5001129;28;20310;-65
2021/03/21 06:53:57;;;;;;;51.33;23.53;;;5.70;99.90;;;;;;5014484;28;20196;-65
2021/03/21 06:57:09;;;;;;;50.17;23.33;;;5.80;99.90;;;;;;5013937;28;20183;-65
2021/03/21 06:59:59;;;;;;;55.30;25.53;;;5.80;99.90;;;;;;5010074;28;20585;-65
2021/03/21 07:03:06;;;;;;;47.97;24.90;;;5.90;99.90;;;;;;5014276;28;20184;-65
2021/03/21 07:05:51;;;;;;;52.27;24.43;;;5.90;99.90;;;;;;5005802;28;20195;-65
2021/03/21 07:08:22;;;;;;;48.13;22.27;;;6.00;99.90;;;;;;4994561;28;20173;-65
2021/03/21 07:11:22;;;;;;;38.57;19.30;;;6.10;99.90;;;;;;4996079;28;20177;-65
2021/03/21 07:14:07;;;;;;;37.67;20.67;;;6.30;99.90;;;;;;5014263;28;20214;-65
2021/03/21 07:16:47;;;;;;;38.20;19.83;;;6.40;99.90;;;;;;5013987;28;20583;-65
2021/03/21 07:19:31;;;;;;;37.70;20.43;;;6.40;99.90;;;;;;5014044;28;20617;-65
2021/03/21 07:22:34;;;;;;;35.43;18.00;;;6.60;99.90;;;;;;5013808;28;20180;-65
2021/03/21 07:25:34;;;;;;;31.83;17.33;;;6.80;99.90;;;;;;5013915;28;20176;-65
2021/03/21 07:28:10;;;;;;;37.27;19.37;;;6.90;99.90;;;;;;5013689;28;20180;-65
2021/03/21 07:31:01;;;;;;;35.57;18.93;;;6.90;99.90;;;;;;5013373;28;20601;-65
2021/03/21 07:33:37;;;;;;;28.37;15.97;;;7.00;99.90;;;;;;4994141;28;20197;-65
2021/03/21 07:36:08;;;;;;;33.10;18.23;;;7.00;99.90;;;;;;4994997;28;20176;-65
2021/03/21 07:39:01;;;;;;;30.07;17.27;;;7.10;99.90;;;;;;5013478;28;20203;-64
2021/03/21 07:42:02;;;;;;;27.00;16.27;;;7.10;99.90;;;;;;5013056;28;20723;-65
2021/03/21 07:44:48;;;;;;;26.53;15.53;;;7.20;99.90;;;;;;5013354;28;20552;-65
2021/03/21 07:47:42;;;;;;;24.20;15.03;;;7.20;99.90;;;;;;5013293;28;20521;-65
2021/03/21 07:50:32;;;;;;;22.50;14.30;;;7.30;99.90;;;;;;5013364;28;20654;-65
2021/03/21 07:53:09;;;;;;;19.53;11.47;;;7.30;99.90;;;;;;5012332;28;20204;-65
2021/03/21 07:55:55;;;;;;;20.83;13.27;;;7.20;99.90;;;;;;5013185;28;20200;-65
2021/03/21 07:58:34;;;;;;;24.43;13.93;;;7.20;99.90;;;;;;5013041;28;20657;-65
2021/03/21 08:01:00;;;;;;;19.63;13.00;;;7.20;99.90;;;;;;5013219;28;20176;-65
2021/03/21 08:03:44;;;;;;;19.43;12.20;;;7.30;99.90;;;;;;5012853;28;20202;-65
2021/03/21 08:06:25;;;;;;;23.33;13.27;;;7.30;99.90;;;;;;5013263;28;20191;-64
2021/03/21 08:09:01;;;;;;;16.90;11.33;;;7.40;99.90;;;;;;4993714;28;20208;-65
2021/03/21 08:11:29;;;;;;;15.83;9.63;;;7.50;99.90;;;;;;4993627;28;20255;-65
2021/03/21 08:14:07;;;;;;;18.67;10.97;;;7.60;99.90;;;;;;5013177;28;20238;-65
2021/03/21 08:16:41;;;;;;;16.50;10.10;;;7.60;99.90;;;;;;5011312;28;20245;-65
2021/03/21 08:19:10;;;;;;;16.93;10.97;;;7.70;99.90;;;;;;5011740;28;20199;-65
2021/03/21 08:21:35;;;;;;;10.90;8.00;;;7.80;99.90;;;;;;5012467;28;20172;-65
2021/03/21 08:24:23;;;;;;;14.30;9.90;;;8.00;99.90;;;;;;5013010;28;20192;-65
2021/03/21 08:26:49;;;;;;;10.83;7.77;;;8.00;99.90;;;;;;5012722;28;20467;-65
2021/03/21 08:29:26;;;;;;;12.80;8.13;;;7.90;99.90;;;;;;5011813;28;20259;-65
2021/03/21 08:32:07;;;;;;;11.20;7.00;;;7.90;99.90;;;;;;5011219;28;20183;-65
2021/03/21 08:34:44;;;;;;;12.43;8.23;;;8.00;99.90;;;;;;5013157;28;20203;-65
2021/03/21 08:37:27;;;;;;;12.33;6.67;;;7.80;99.90;;;;;;5013710;28;20208;-65
2021/03/21 08:39:58;;;;;;;10.43;7.50;;;7.60;99.90;;;;;;5012499;28;20464;-65
2021/03/21 08:42:26;;;;;;;14.60;7.63;;;7.30;99.90;;;;;;4992859;28;20177;-65
2021/03/21 08:44:59;;;;;;;11.00;7.23;;;7.20;99.90;;;;;;4993075;28;20224;-65
2021/03/21 08:47:28;;;;;;;12.80;8.33;;;7.10;99.90;;;;;;4992813;28;20204;-65
2021/03/21 08:49:57;;;;;;;9.30;6.30;;;7.00;99.90;;;;;;4992785;28;20227;-64
2021/03/21 08:52:44;;;;;;;15.63;7.20;;;7.10;99.90;;;;;;5011869;28;20227;-64
2021/03/21 08:55:45;;;;;;;11.07;6.67;;;7.30;99.90;;;;;;5007162;28;20190;-64
2021/03/21 08:58:26;;;;;;;12.07;6.73;;;7.50;99.90;;;;;;5012170;28;20281;-64
2021/03/21 09:00:54;;;;;;;10.37;5.60;;;7.80;99.90;;;;;;5010537;28;20168;-64
2021/03/21 09:03:31;;;;;;;5.43;4.27;;;8.20;99.90;;;;;;5011888;28;20670;-64
2021/03/21 09:05:58;;;;;;;5.97;3.53;;;8.50;99.90;;;;;;5011669;28;20168;-64
2021/03/21 09:08:26;;;;;;;4.13;2.63;;;8.80;99.90;;;;;;5011904;28;20540;-64
2021/03/21 09:10:57;;;;;;;5.00;2.90;;;8.80;99.90;;;;;;5011820;28;20172;-64
2021/03/21 09:13:29;;;;;;;3.50;2.70;;;8.70;99.90;;;;;;5012206;28;20552;-65
2021/03/21 09:15:55;;;;;;;2.37;2.10;;;8.60;99.90;;;;;;5012154;28;20653;-64
2021/03/21 09:18:26;;;;;;;3.43;2.63;;;8.40;99.90;;;;;;5011771;28;20290;-64
2021/03/21 09:21:15;;;;;;;8.97;3.30;;;8.30;99.90;;;;;;5011561;28;20708;-64
2021/03/21 09:23:47;;;;;;;4.17;3.17;;;8.20;99.90;;;;;;5012064;28;20199;-64
2021/03/21 09:26:16;;;;;;;4.40;3.00;;;8.20;99.90;;;;;;5011722;28;20199;-64
2021/03/21 09:28:48;;;;;;;3.67;3.27;;;8.30;99.90;;;;;;5011910;28;20187;-64
2021/03/21 09:31:14;;;;;;;5.53;3.00;;;8.30;99.90;;;;;;5011445;28;20649;-65
2021/03/21 09:33:48;;;;;;;4.77;2.80;;;8.20;99.90;;;;;;5011706;28;20202;-64
2021/03/21 09:36:24;;;;;;;6.03;3.63;;;8.10;99.90;;;;;;5011118;28;20533;-64
2021/03/21 09:39:18;;;;;;;3.93;3.13;;;8.10;99.90;;;;;;5011846;28;20680;-64
2021/03/21 09:41:48;;;;;;;3.77;2.80;;;8.00;99.90;;;;;;4986212;28;20193;-64
2021/03/21 09:44:24;;;;;;;7.73;3.60;;;8.10;99.90;;;;;;4993766;28;20203;-65
2021/03/21 09:46:56;;;;;;;5.40;3.10;;;8.10;99.90;;;;;;5011774;28;20172;-64
2021/03/21 09:49:35;;;;;;;6.67;3.87;;;8.00;99.90;;;;;;5011556;28;20634;-64
2021/03/21 09:52:24;;;;;;;3.87;2.73;;;7.90;99.90;;;;;;5011422;28;20638;-64
2021/03/21 09:54:58;;;;;;;3.40;2.00;;;7.90;99.90;;;;;;5011188;28;20195;-64
2021/03/21 09:57:33;;;;;;;3.20;2.00;;;7.80;99.90;;;;;;5011766;28;20183;-63
2021/03/21 10:00:21;;;;;;;4.70;2.07;;;7.80;99.90;;;;;;5011313;28;20183;-64
2021/03/21 10:03:01;;;;;;;6.90;2.10;;;8.00;99.90;;;;;;5011371;28;20207;-63
2021/03/21 10:05:48;;;;;;;6.83;2.03;;;8.10;99.90;;;;;;5011508;28;20241;-64
2021/03/21 10:08:37;;;;;;;3.73;2.03;;;8.40;99.90;;;;;;5011523;28;20539;-64
2021/03/21 10:11:07;;;;;;;8.47;2.70;;;8.80;99.90;;;;;;5011056;28;20291;-64
2021/03/21 10:13:41;;;;;;;6.47;2.00;;;9.20;99.90;;;;;;5011235;28;20196;-64
2021/03/21 10:16:15;;;;;;;8.63;2.80;;;9.20;99.90;;;;;;5011484;28;20241;-64
2021/03/21 10:18:44;;;;;;;5.40;2.40;;;9.40;99.90;;;;;;5015270;28;20218;-64
2021/03/21 10:21:27;;;;;;;6.40;2.60;;;9.50;99.90;;;;;;5014628;28;20176;-64
2021/03/21 10:23:59;;;;;;;11.83;2.60;;;9.40;99.90;;;;;;5015269;28;20603;-64
2021/03/21 10:26:28;;;;;;;3.40;1.90;;;9.20;99.90;;;;;;5014861;28;20168;-63
2021/03/21 10:28:56;;;;;;;10.20;2.47;;;9.20;99.90;;;;;;5015152;28;20545;-64
2021/03/21 10:31:22;;;;;;;8.20;2.30;;;9.10;99.90;;;;;;5014389;28;20180;-63
2021/03/21 10:34:15;;;;;;;9.43;2.33;;;9.00;99.90;;;;;;5014818;28;20270;-63
2021/03/21 10:36:40;;;;;;;4.80;2.37;;;8.90;99.90;;;;;;5014719;28;20177;-63
2021/03/21 10:39:12;;;;;;;8.50;2.23;;;8.80;99.90;;;;;;5014674;28;20203;-63
2021/03/21 10:41:53;;;;;;;11.27;3.13;;;8.60;99.90;;;;;;5014584;28;20653;-64
2021/03/21 10:44:41;;;;;;;8.23;2.63;;;8.40;99.90;;;;;;5014554;28;20223;-64
2021/03/21 10:47:34;;;;;;;10.07;2.57;;;8.40;99.90;;;;;;5015053;28;20569;-64
2021/03/21 10:50:05;;;;;;;10.10;2.57;;;8.50;99.90;;;;;;5014186;28;20216;-64
2021/03/21 10:52:35;;;;;;;8.87;2.33;;;8.50;99.90;;;;;;5014708;28;20230;-64
2021/03/21 10:55:13;;;;;;;5.70;2.80;;;8.60;99.90;;;;;;5014407;28;20658;-64
2021/03/21 10:57:44;;;;;;;9.47;2.80;;;8.60;99.90;;;;;;5014609;28;20254;-64
2021/03/21 11:00:19;;;;;;;5.63;2.70;;;8.50;99.90;;;;;;5014124;28;20176;-64
2021/03/21 11:02:49;;;;;;;11.83;2.53;;;8.60;99.90;;;;;;5014417;28;20171;-64
2021/03/21 11:05:27;;;;;;;10.30;2.87;;;8.60;99.90;;;;;;5014324;28;20168;-64
2021/03/21 11:08:13;;;;;;;9.47;2.73;;;8.70;99.90;;;;;;5014547;28;20250;-64
2021/03/21 11:11:12;;;;;;;11.43;2.67;;;8.90;99.90;;;;;;4999873;28;20270;-64
2021/03/21 11:13:38;;;;;;;16.13;3.30;;;8.90;99.90;;;;;;5014201;28;20645;-64
2021/03/21 11:16:21;;;;;;;7.57;2.40;;;9.00;99.90;;;;;;5014133;28;20196;-64
2021/03/21 11:19:04;;;;;;;11.50;3.23;;;8.80;99.90;;;;;;5014033;28;20207;-64
2021/03/21 11:21:36;;;;;;;12.23;3.07;;;8.60;99.90;;;;;;5013338;28;20242;-64
2021/03/21 11:24:05;;;;;;;11.30;3.70;;;8.50;99.90;;;;;;5014280;28;20188;-64
2021/03/21 11:26:37;;;;;;;11.17;3.13;;;8.50;99.90;;;;;;5013641;28;20172;-64
2021/03/21 11:29:09;;;;;;;7.73;3.27;;;8.50;99.90;;;;;;5014078;28;20187;-64
2021/03/21 11:31:39;;;;;;;12.90;3.43;;;8.60;99.90;;;;;;5013179;28;20199;-64
2021/03/21 11:34:19;;;;;;;11.33;3.67;;;8.70;99.90;;;;;;5013966;28;20204;-64
2021/03/21 11:36:59;;;;;;;11.47;3.40;;;8.90;99.90;;;;;;5013539;28;20187;-64
2021/03/21 11:39:39;;;;;;;13.30;2.87;;;9.20;99.90;;;;;;5013753;28;20274;-64
2021/03/21 11:42:21;;;;;;;9.57;2.87;;;9.40;99.90;;;;;;5013350;28;20176;-64
2021/03/21 11:44:49;;;;;;;12.43;3.30;;;9.50;99.90;;;;;;5014291;28;20192;-64
2021/03/21 11:47:28;;;;;;;15.77;4.53;;;9.70;99.90;;;;;;5013662;28;20258;-64
2021/03/21 11:49:56;;;;;;;8.40;3.27;;;9.90;99.90;;;;;;5013570;28;20609;-64
2021/03/21 11:52:22;;;;;;;9.70;4.03;;;10.10;99.90;;;;;;5013260;28;20520;-64
2021/03/21 11:54:48;;;;;;;17.37;4.03;;;10.20;99.90;;;;;;5013334;28;20899;-64
2021/03/21 11:57:32;;;;;;;11.83;3.70;;;10.10;99.90;;;;;;5013342;28;20211;-64
2021/03/21 12:00:01;;;;;;;16.40;3.90;;;10.10;99.90;;;;;;5013388;28;20612;-64
2021/03/21 12:02:50;;;;;;;9.57;2.67;;;10.20;99.90;;;;;;5012934;28;20259;-63
2021/03/21 12:05:21;;;;;;;15.80;4.13;;;10.20;99.90;;;;;;5013225;28;20251;-64
2021/03/21 12:07:47;;;;;;;19.00;4.17;;;10.30;99.90;;;;;;5013406;28;20168;-64
2021/03/21 12:10:29;;;;;;;13.13;4.67;;;10.30;99.90;;;;;;5013193;28;20192;-63
2021/03/21 12:12:54;;;;;;;12.93;3.00;;;10.40;99.90;;;;;;4993791;28;20283;-64
2021/03/21 12:15:23;;;;;;;8.60;2.53;;;10.40;99.90;;;;;;5000582;28;20263;-63
2021/03/21 12:17:59;;;;;;;15.43;5.10;;;10.30;99.90;;;;;;5012706;28;20180;-63
2021/03/21 12:20:37;;;;;;;18.20;4.57;;;10.20;99.90;;;;;;5012156;28;20183;-63
2021/03/21 12:23:04;;;;;;;20.80;4.63;;;10.10;99.90;;;;;;5013003;28;20184;-64
2021/03/21 12:25:34;;;;;;;13.80;3.97;;;10.20;99.90;;;;;;5012644;28;20204;-63
2021/03/21 12:28:18;;;;;;;21.40;4.00;;;10.30;99.90;;;;;;5012974;28;20180;-64
2021/03/21 12:30:50;;;;;;;19.67;4.23;;;10.30;99.90;;;;;;5012171;28;20543;-63
2021/03/21 12:33:25;;;;;;;16.50;3.60;;;10.10;99.90;;;;;;5012495;28;20249;-63
2021/03/21 12:35:53;;;;;;;14.97;3.50;;;10.00;99.90;;;;;;5012789;28;20527;-63
2021/03/21 12:38:25;;;;;;;15.17;3.43;;;9.80;99.90;;;;;;5012330;28;20196;-63
2021/03/21 12:40:51;;;;;;;15.67;6.27;;;9.70;99.90;;;;;;5011899;28;20176;-63
2021/03/21 12:43:18;;;;;;;17.23;4.77;;;9.80;99.90;;;;;;5013916;28;20749;-64
2021/03/21 12:45:58;;;;;;;22.37;6.60;;;9.70;99.90;;;;;;5012442;28;20179;-64
2021/03/21 12:48:24;;;;;;;14.73;5.60;;;9.70;99.90;;;;;;5012113;28;20172;-64
2021/03/21 12:50:49;;;;;;;19.70;4.93;;;9.60;99.90;;;;;;5012129;28;20195;-64
2021/03/21 12:53:30;;;;;;;14.50;5.30;;;9.60;99.90;;;;;;5012244;28;20203;-64
2021/03/21 12:55:58;;;;;;;15.43;4.47;;;9.60;99.90;;;;;;5012452;28;20192;-64
2021/03/21 12:58:24;;;;;;;21.90;5.20;;;9.60;99.90;;;;;;5011870;28;20705;-64
2021/03/21 13:00:51;;;;;;;18.23;6.63;;;9.50;99.90;;;;;;5011875;28;20211;-64
2021/03/21 13:03:29;;;;;;;11.00;3.33;;;9.60;99.90;;;;;;5012459;28;20184;-64
2021/03/21 13:05:55;;;;;;;11.00;3.30;;;9.70;99.90;;;;;;4992528;28;20173;-64
2021/03/21 13:08:21;;;;;;;13.17;3.33;;;9.70;99.90;;;;;;4992470;28;20240;-64
2021/03/21 13:10:47;;;;;;;20.63;6.80;;;9.50;99.90;;;;;;5010969;28;20283;-63
2021/03/21 13:13:14;;;;;;;12.13;3.77;;;9.50;99.90;;;;;;5012296;28;20191;-64
2021/03/21 13:15:39;;;;;;;20.87;5.93;;;9.60;99.90;;;;;;5011986;28;20351;-64
2021/03/21 13:18:05;;;;;;;19.40;5.30;;;9.60;99.90;;;;;;5012032;28;20267;-63
2021/03/21 13:20:31;;;;;;;21.07;4.87;;;9.80;99.90;;;;;;5011383;28;20218;-64
2021/03/21 13:22:57;;;;;;;14.73;4.47;;;9.90;99.90;;;;;;5012053;28;20188;-63
2021/03/21 13:25:26;;;;;;;21.40;5.20;;;10.00;99.90;;;;;;5011550;28;20175;-64
2021/03/21 13:27:57;;;;;;;16.10;3.67;;;9.80;99.90;;;;;;5012335;28;20168;-64
2021/03/21 13:30:29;;;;;;;19.40;4.77;;;9.80;99.90;;;;;;5011644;28;20584;-64